Time;durP1;ratioP1;P1;durP2;ratioP2;P2;SDS_P1;SDS_P2;PMS_P1;PMS_P2;Temp;Humidity;BMP_temperature;BMP_pressure;BME280_temperature;BME280_humidity;BME280_pressure;Samples;Min_cycle;Max_cycle;Signal;HPM_P1;HPM_P2
2023/12/08 00:01:43;;;;;;;45.90;41.80;;;;;;;;;;5007483;28;25118;-72
2023/12/08 00:04:09;;;;;;;45.20;41.25;;;;;;;;;;5008063;28;25105;-72
2023/12/08 00:06:35;;;;;;;44.08;39.90;;;;;;;;;;5008619;28;25054;-73
2023/12/08 00:09:01;;;;;;;46.33;41.88;;;;;;;;;;5013094;28;25081;-71
2023/12/08 00:11:27;;;;;;;46.10;41.78;;;;;;;;;;5014151;28;25077;-72
2023/12/08 00:13:53;;;;;;;46.67;42.40;;;;;;;;;;5003823;28;25063;-71
2023/12/08 00:16:19;;;;;;;46.08;41.72;;;;;;;;;;5001794;28;25067;-70
2023/12/08 00:18:45;;;;;;;46.72;42.53;;;;;;;;;;5007073;28;25054;-72
2023/12/08 00:21:11;;;;;;;47.58;43.22;;;;;;;;;;5010343;28;25100;-72
2023/12/08 00:23:37;;;;;;;48.85;44.35;;;;;;;;;;5012665;28;25077;-73
2023/12/08 00:26:03;;;;;;;46.05;41.83;;;;;;;;;;5010746;28;25089;-72
2023/12/08 00:28:29;;;;;;;49.75;45.35;;;;;;;;;;5009937;28;25060;-72
2023/12/08 00:30:55;;;;;;;48.30;43.85;;;;;;;;;;5009566;28;25163;-72
2023/12/08 00:33:21;;;;;;;47.97;43.92;;;;;;;;;;5012722;28;25070;-72
2023/12/08 00:35:50;;;;;;;49.15;44.45;;;;;;;;;;5009100;28;25087;-72
2023/12/08 00:38:16;;;;;;;50.38;45.72;;;;;;;;;;5022004;28;25058;-70
2023/12/08 00:40:42;;;;;;;49.08;44.53;;;;;;;;;;5012122;28;25075;-72
2023/12/08 00:43:08;;;;;;;49.72;45.08;;;;;;;;;;5016778;28;25063;-71
2023/12/08 00:45:34;;;;;;;51.22;46.63;;;;;;;;;;5014059;28;25142;-71
2023/12/08 00:48:00;;;;;;;52.22;47.35;;;;;;;;;;5012369;28;25072;-72
2023/12/08 00:50:26;;;;;;;50.80;46.00;;;;;;;;;;5013548;28;25069;-72
2023/12/08 00:52:52;;;;;;;49.63;45.08;;;;;;;;;;5025648;28;25142;-71
2023/12/08 00:55:18;;;;;;;49.65;44.75;;;;;;;;;;5012817;28;25094;-72
2023/12/08 00:57:44;;;;;;;49.30;44.78;;;;;;;;;;5009613;28;25057;-71
2023/12/08 01:00:11;;;;;;;52.53;47.45;;;;;;;;;;5012339;28;25087;-71
2023/12/08 01:02:37;;;;;;;50.30;45.53;;;;;;;;;;5013776;28;25062;-73
2023/12/08 01:05:03;;;;;;;48.28;43.67;;;;;;;;;;5011722;28;25054;-71
2023/12/08 01:07:29;;;;;;;51.53;46.28;;;;;;;;;;5013043;28;25151;-72
2023/12/08 01:09:55;;;;;;;49.33;44.55;;;;;;;;;;5009977;28;25069;-71
2023/12/08 01:12:21;;;;;;;52.17;47.13;;;;;;;;;;5014886;28;25052;-71
2023/12/08 01:14:47;;;;;;;53.65;48.03;;;;;;;;;;5010879;28;25051;-73
2023/12/08 01:17:13;;;;;;;59.78;53.80;;;;;;;;;;5012338;28;25060;-73
2023/12/08 01:19:39;;;;;;;59.53;53.65;;;;;;;;;;5011444;28;25175;-72
2023/12/08 01:22:05;;;;;;;59.20;53.22;;;;;;;;;;5006738;28;25090;-72
2023/12/08 01:24:31;;;;;;;62.25;56.15;;;;;;;;;;5008495;28;25094;-74
2023/12/08 01:26:57;;;;;;;63.78;57.28;;;;;;;;;;5020685;28;25068;-73
2023/12/08 01:29:23;;;;;;;66.88;60.00;;;;;;;;;;5025755;28;25064;-72
2023/12/08 01:31:49;;;;;;;66.85;60.13;;;;;;;;;;5027802;28;25089;-72
2023/12/08 01:34:15;;;;;;;68.00;61.22;;;;;;;;;;5028644;28;25069;-72
2023/12/08 01:36:41;;;;;;;67.50;60.45;;;;;;;;;;5030223;28;25061;-73
2023/12/08 01:39:07;;;;;;;71.68;64.40;;;;;;;;;;5022799;28;25058;-72
2023/12/08 01:41:33;;;;;;;66.93;60.47;;;;;;;;;;5008653;28;25073;-74
2023/12/08 01:43:59;;;;;;;68.68;61.83;;;;;;;;;;5008469;28;25073;-73
2023/12/08 01:46:26;;;;;;;70.55;63.33;;;;;;;;;;5011680;28;25069;-72
2023/12/08 01:48:52;;;;;;;71.72;64.20;;;;;;;;;;5012183;28;25070;-73
2023/12/08 01:51:19;;;;;;;71.53;64.13;;;;;;;;;;5008864;28;25072;-73
2023/12/08 01:53:45;;;;;;;71.68;64.35;;;;;;;;;;5007433;28;25077;-74
2023/12/08 01:56:12;;;;;;;69.40;61.90;;;;;;;;;;5010444;28;25138;-73
2023/12/08 01:58:39;;;;;;;71.30;63.70;;;;;;;;;;5015336;28;25169;-73
2023/12/08 02:01:05;;;;;;;71.65;64.05;;;;;;;;;;5014805;28;25076;-73
2023/12/08 02:03:34;;;;;;;71.25;61.67;;;;;;;;;;5013247;28;25056;-71
2023/12/08 02:06:00;;;;;;;74.78;63.83;;;;;;;;;;5015315;28;25085;-73
2023/12/08 02:08:27;;;;;;;70.70;62.97;;;;;;;;;;5015796;28;25068;-73
2023/12/08 02:10:53;;;;;;;72.90;63.80;;;;;;;;;;5030260;28;25062;-73
2023/12/08 02:13:19;;;;;;;73.35;61.35;;;;;;;;;;5015328;28;25068;-73
2023/12/08 02:15:46;;;;;;;69.25;58.53;;;;;;;;;;5015765;28;25149;-74
2023/12/08 02:18:14;;;;;;;73.00;58.55;;;;;;;;;;5016146;28;25095;-73
2023/12/08 02:20:40;;;;;;;66.70;52.75;;;;;;;;;;5015649;28;25074;-73
2023/12/08 02:23:06;;;;;;;69.30;50.50;;;;;;;;;;5031410;28;25124;-73
2023/12/08 02:25:33;;;;;;;67.47;50.05;;;;;;;;;;5011702;28;25056;-72
2023/12/08 02:27:59;;;;;;;66.82;51.20;;;;;;;;;;5025108;28;25096;-72
2023/12/08 02:30:25;;;;;;;66.15;50.03;;;;;;;;;;5013716;28;25065;-72
2023/12/08 02:32:54;;;;;;;69.75;51.05;;;;;;;;;;5016652;28;25097;-72
2023/12/08 02:35:20;;;;;;;71.32;52.58;;;;;;;;;;5018446;28;25059;-74
2023/12/08 02:37:47;;;;;;;75.43;52.25;;;;;;;;;;5012833;28;25142;-73
2023/12/08 02:40:13;;;;;;;72.05;49.15;;;;;;;;;;5015468;28;25062;-74
2023/12/08 02:42:39;;;;;;;62.30;44.90;;;;;;;;;;5012274;28;25145;-73
2023/12/08 02:45:05;;;;;;;69.28;47.05;;;;;;;;;;5013062;28;25075;-74
2023/12/08 02:47:31;;;;;;;68.20;46.95;;;;;;;;;;5017829;28;25064;-72
2023/12/08 02:49:57;;;;;;;65.72;48.25;;;;;;;;;;5012520;28;25056;-73
2023/12/08 02:52:23;;;;;;;64.72;48.75;;;;;;;;;;5015272;28;25045;-73
2023/12/08 02:54:49;;;;;;;65.00;47.10;;;;;;;;;;5015017;28;25058;-73
2023/12/08 02:57:15;;;;;;;68.20;51.55;;;;;;;;;;5013373;28;25070;-73
2023/12/08 02:59:41;;;;;;;64.97;53.55;;;;;;;;;;5013711;28;25061;-73
2023/12/08 03:02:07;;;;;;;65.20;55.47;;;;;;;;;;5014624;28;25163;-73
2023/12/08 03:04:33;;;;;;;69.13;55.45;;;;;;;;;;5014741;28;25060;-74
2023/12/08 03:06:59;;;;;;;66.07;54.80;;;;;;;;;;5011305;28;25062;-73
2023/12/08 03:09:25;;;;;;;68.93;57.03;;;;;;;;;;5025413;28;25103;-74
2023/12/08 03:11:52;;;;;;;67.20;57.13;;;;;;;;;;5014884;28;25122;-74
2023/12/08 03:14:18;;;;;;;66.90;58.45;;;;;;;;;;5011833;28;25079;-74
2023/12/08 03:16:46;;;;;;;68.85;57.78;;;;;;;;;;5010486;28;25055;-75
2023/12/08 03:19:12;;;;;;;71.93;58.17;;;;;;;;;;5012322;28;25056;-75
2023/12/08 03:21:38;;;;;;;67.80;57.67;;;;;;;;;;5012700;28;25075;-74
2023/12/08 03:24:04;;;;;;;61.63;54.95;;;;;;;;;;5008991;28;25056;-75
2023/12/08 03:26:30;;;;;;;71.05;58.28;;;;;;;;;;5015696;28;25062;-75
2023/12/08 03:28:56;;;;;;;69.82;59.25;;;;;;;;;;5014727;28;25133;-75
2023/12/08 03:31:23;;;;;;;67.45;58.13;;;;;;;;;;5018598;28;25073;-73
2023/12/08 03:33:49;;;;;;;67.60;57.55;;;;;;;;;;5017722;28;25094;-74
2023/12/08 03:36:15;;;;;;;71.68;59.85;;;;;;;;;;5017273;28;25060;-73
2023/12/08 03:38:41;;;;;;;67.95;57.92;;;;;;;;;;5017824;28;25084;-74
2023/12/08 03:41:07;;;;;;;77.43;59.53;;;;;;;;;;5015367;28;25093;-75
2023/12/08 03:43:33;;;;;;;69.07;58.65;;;;;;;;;;5016395;28;25066;-76
2023/12/08 03:45:59;;;;;;;72.55;59.53;;;;;;;;;;5013098;28;25075;-75
2023/12/08 03:48:25;;;;;;;67.60;57.25;;;;;;;;;;5015415;28;25102;-73
2023/12/08 03:50:51;;;;;;;68.13;56.83;;;;;;;;;;5014132;28;25069;-74
2023/12/08 03:53:17;;;;;;;69.10;56.95;;;;;;;;;;5015829;28;25063;-75
2023/12/08 03:55:43;;;;;;;59.67;53.00;;;;;;;;;;5016182;28;25079;-74
2023/12/08 03:58:09;;;;;;;63.58;56.80;;;;;;;;;;5009079;28;25072;-74
2023/12/08 04:00:34;;;;;;;64.50;56.33;;;;;;;;;;5022072;28;25080;-75
2023/12/08 04:03:00;;;;;;;64.53;54.88;;;;;;;;;;5014157;28;25129;-74
2023/12/08 04:05:26;;;;;;;61.63;55.35;;;;;;;;;;5016953;28;25147;-75
2023/12/08 04:07:52;;;;;;;63.05;55.05;;;;;;;;;;5015655;28;25052;-74
2023/12/08 04:10:18;;;;;;;61.38;53.38;;;;;;;;;;5015002;28;25050;-76
2023/12/08 04:12:44;;;;;;;62.05;53.65;;;;;;;;;;5014947;28;25088;-74
2023/12/08 04:15:10;;;;;;;61.55;54.90;;;;;;;;;;5014501;28;25062;-74
2023/12/08 04:17:36;;;;;;;59.58;53.35;;;;;;;;;;5011131;28;25058;-74
2023/12/08 04:20:02;;;;;;;61.80;55.22;;;;;;;;;;5010210;28;25105;-74
2023/12/08 04:22:28;;;;;;;64.03;57.10;;;;;;;;;;5012440;28;25062;-75
2023/12/08 04:24:54;;;;;;;62.30;55.58;;;;;;;;;;5009501;28;25052;-75
2023/12/08 04:27:20;;;;;;;67.20;55.63;;;;;;;;;;5010190;28;25061;-75
2023/12/08 04:29:46;;;;;;;60.65;54.50;;;;;;;;;;5006863;28;25083;-74
2023/12/08 04:32:12;;;;;;;61.35;55.15;;;;;;;;;;5004839;28;25070;-75
2023/12/08 04:34:38;;;;;;;62.95;56.05;;;;;;;;;;5003879;28;25070;-73
2023/12/08 04:37:04;;;;;;;62.88;56.08;;;;;;;;;;5006394;28;25070;-73
2023/12/08 04:39:30;;;;;;;62.22;55.65;;;;;;;;;;5005295;28;25070;-74
2023/12/08 04:41:56;;;;;;;61.70;55.05;;;;;;;;;;5005387;28;25116;-75
2023/12/08 04:44:22;;;;;;;61.92;55.33;;;;;;;;;;5007036;28;25088;-75
2023/12/08 04:46:48;;;;;;;61.17;54.88;;;;;;;;;;5008841;28;25200;-76
2023/12/08 04:49:14;;;;;;;60.28;54.05;;;;;;;;;;5000833;28;25060;-74
2023/12/08 04:51:43;;;;;;;60.55;54.08;;;;;;;;;;5004361;28;25113;-75
2023/12/08 04:54:09;;;;;;;62.53;56.03;;;;;;;;;;5003843;28;25161;-75
2023/12/08 04:56:35;;;;;;;60.55;54.38;;;;;;;;;;5008497;28;25140;-74
2023/12/08 04:59:01;;;;;;;60.75;54.25;;;;;;;;;;5006976;28;25070;-75
2023/12/08 05:01:27;;;;;;;58.70;52.63;;;;;;;;;;5010444;28;25056;-73
2023/12/08 05:03:53;;;;;;;61.47;55.10;;;;;;;;;;5004494;28;25115;-75
2023/12/08 05:06:22;;;;;;;59.53;53.08;;;;;;;;;;5009201;28;25075;-74
2023/12/08 05:08:48;;;;;;;59.47;51.60;;;;;;;;;;5011191;28;25169;-73
2023/12/08 05:11:14;;;;;;;57.70;51.83;;;;;;;;;;5009915;28;25096;-74
2023/12/08 05:13:40;;;;;;;57.95;52.00;;;;;;;;;;5008585;28;25105;-76
2023/12/08 05:16:06;;;;;;;61.45;54.78;;;;;;;;;;5007307;28;25091;-73
2023/12/08 05:18:32;;;;;;;58.75;52.90;;;;;;;;;;5008048;28;25152;-75
2023/12/08 05:20:58;;;;;;;60.05;53.70;;;;;;;;;;5003169;28;25071;-75
2023/12/08 05:23:24;;;;;;;56.30;50.72;;;;;;;;;;5002187;28;25108;-74
2023/12/08 05:25:50;;;;;;;58.65;52.53;;;;;;;;;;5002456;28;25101;-74
2023/12/08 05:28:16;;;;;;;60.65;54.33;;;;;;;;;;5003030;28;25068;-73
2023/12/08 05:30:42;;;;;;;57.47;51.53;;;;;;;;;;5003814;28;25060;-74
2023/12/08 05:33:08;;;;;;;57.83;52.13;;;;;;;;;;5000512;28;25076;-73
2023/12/08 05:35:34;;;;;;;61.60;55.03;;;;;;;;;;4999912;28;25165;-75
2023/12/08 05:38:00;;;;;;;59.33;53.47;;;;;;;;;;5002759;28;25063;-74
2023/12/08 05:40:26;;;;;;;56.67;50.75;;;;;;;;;;5003677;28;25191;-74
2023/12/08 05:42:52;;;;;;;61.70;55.60;;;;;;;;;;5000428;28;25075;-74
2023/12/08 05:45:18;;;;;;;61.70;55.20;;;;;;;;;;5003614;28;25106;-74
2023/12/08 05:47:44;;;;;;;57.72;51.65;;;;;;;;;;5005043;28;25134;-74
2023/12/08 05:50:11;;;;;;;59.30;53.38;;;;;;;;;;5000839;28;25034;-75
2023/12/08 05:52:37;;;;;;;55.58;49.97;;;;;;;;;;5000980;28;25053;-74
2023/12/08 05:55:03;;;;;;;57.90;52.20;;;;;;;;;;5001042;28;25119;-75
2023/12/08 05:57:29;;;;;;;61.00;54.33;;;;;;;;;;5003731;28;25059;-75
2023/12/08 05:59:55;;;;;;;62.20;55.92;;;;;;;;;;5003147;28;25076;-74
2023/12/08 06:02:21;;;;;;;62.13;55.47;;;;;;;;;;4999913;28;25169;-75
2023/12/08 06:04:47;;;;;;;66.20;55.65;;;;;;;;;;5002460;28;25161;-75
2023/12/08 06:07:14;;;;;;;62.40;55.55;;;;;;;;;;5003322;28;25126;-75
2023/12/08 06:09:40;;;;;;;68.35;59.95;;;;;;;;;;4960866;28;1152266;-75
2023/12/08 06:12:06;;;;;;;60.95;54.50;;;;;;;;;;4996415;28;25081;-76
2023/12/08 06:14:32;;;;;;;69.45;56.33;;;;;;;;;;5002246;28;25073;-75
2023/12/08 06:16:58;;;;;;;66.47;55.90;;;;;;;;;;5003927;28;25059;-73
2023/12/08 06:19:24;;;;;;;75.07;59.35;;;;;;;;;;4996319;28;25074;-77
2023/12/08 06:21:50;;;;;;;62.92;56.03;;;;;;;;;;5003021;28;25138;-75
2023/12/08 06:24:17;;;;;;;68.15;57.78;;;;;;;;;;5002758;28;25094;-76
2023/12/08 06:26:42;;;;;;;71.95;58.78;;;;;;;;;;5003090;28;25060;-77
2023/12/08 06:29:08;;;;;;;62.55;55.42;;;;;;;;;;4996759;28;25068;-76
2023/12/08 06:31:34;;;;;;;65.15;57.53;;;;;;;;;;5006230;28;25078;-74
2023/12/08 06:34:00;;;;;;;65.50;58.20;;;;;;;;;;5006095;28;25093;-75
2023/12/08 06:36:26;;;;;;;68.15;59.35;;;;;;;;;;5002728;28;25109;-74
2023/12/08 06:38:52;;;;;;;68.38;58.97;;;;;;;;;;5008346;28;25071;-76
2023/12/08 06:41:18;;;;;;;72.32;59.88;;;;;;;;;;5020759;28;25155;-74
2023/12/08 06:43:44;;;;;;;81.25;58.67;;;;;;;;;;5004374;28;25098;-75
2023/12/08 06:46:10;;;;;;;67.68;58.55;;;;;;;;;;5004784;28;25156;-77
2023/12/08 06:48:36;;;;;;;84.75;63.30;;;;;;;;;;5005932;28;25128;-75
2023/12/08 06:51:03;;;;;;;72.22;60.55;;;;;;;;;;5007215;28;25102;-76
2023/12/08 06:53:29;;;;;;;87.60;61.70;;;;;;;;;;5019141;28;25046;-75
2023/12/08 06:55:55;;;;;;;97.70;61.63;;;;;;;;;;5019587;28;25069;-76
2023/12/08 06:58:21;;;;;;;99.50;65.85;;;;;;;;;;5014002;28;25100;-75
2023/12/08 07:00:48;;;;;;;94.32;65.18;;;;;;;;;;5007378;28;25072;-74
2023/12/08 07:03:14;;;;;;;84.32;63.97;;;;;;;;;;5008479;28;25072;-75
2023/12/08 07:05:40;;;;;;;67.82;55.88;;;;;;;;;;5004382;28;25062;-74
2023/12/08 07:08:06;;;;;;;90.72;66.85;;;;;;;;;;5002549;28;25062;-76
2023/12/08 07:10:32;;;;;;;86.13;62.10;;;;;;;;;;5003302;28;25063;-75
2023/12/08 07:12:58;;;;;;;78.47;60.63;;;;;;;;;;5005470;28;25065;-74
2023/12/08 07:15:24;;;;;;;103.93;68.35;;;;;;;;;;5006805;28;25081;-75
2023/12/08 07:17:50;;;;;;;69.57;58.53;;;;;;;;;;5005263;28;25063;-74
2023/12/08 07:20:18;;;;;;;103.03;63.63;;;;;;;;;;5004681;28;25065;-75
2023/12/08 07:22:44;;;;;;;125.53;72.95;;;;;;;;;;5005928;28;25174;-74
2023/12/08 07:25:12;;;;;;;133.95;75.88;;;;;;;;;;5005432;28;25189;-75
2023/12/08 07:27:38;;;;;;;98.75;61.92;;;;;;;;;;5003258;28;25105;-75
2023/12/08 07:30:04;;;;;;;95.72;62.50;;;;;;;;;;5007458;28;25080;-74
2023/12/08 07:32:31;;;;;;;99.88;61.08;;;;;;;;;;5007311;28;25068;-76
2023/12/08 07:34:56;;;;;;;86.82;57.60;;;;;;;;;;5004473;28;25089;-74
2023/12/08 07:37:22;;;;;;;131.13;68.38;;;;;;;;;;5002531;28;25052;-75
2023/12/08 07:39:49;;;;;;;178.32;76.50;;;;;;;;;;5002193;28;25071;-74
2023/12/08 07:42:15;;;;;;;98.95;62.15;;;;;;;;;;5005299;28;25095;-75
2023/12/08 07:44:41;;;;;;;125.53;66.10;;;;;;;;;;5005666;28;25113;-75
2023/12/08 07:47:07;;;;;;;138.88;67.40;;;;;;;;;;5005428;28;25055;-75
2023/12/08 07:49:33;;;;;;;143.77;70.30;;;;;;;;;;5004152;28;25146;-75
2023/12/08 07:51:59;;;;;;;138.60;65.65;;;;;;;;;;5006573;28;25158;-74
2023/12/08 07:54:26;;;;;;;148.32;67.32;;;;;;;;;;5009412;28;25097;-77
2023/12/08 07:56:52;;;;;;;156.32;69.03;;;;;;;;;;5015913;28;25090;-75
2023/12/08 07:59:18;;;;;;;189.55;78.72;;;;;;;;;;5018732;28;25065;-75
2023/12/08 08:01:44;;;;;;;192.02;77.15;;;;;;;;;;5006968;28;25079;-74
2023/12/08 08:04:10;;;;;;;128.38;65.07;;;;;;;;;;5002429;28;25052;-75
2023/12/08 08:06:36;;;;;;;102.50;63.67;;;;;;;;;;5005055;28;25067;-75
2023/12/08 08:09:03;;;;;;;163.07;72.15;;;;;;;;;;5007688;28;25092;-74
2023/12/08 08:11:29;;;;;;;165.40;72.25;;;;;;;;;;5006189;28;25085;-74
2023/12/08 08:13:55;;;;;;;173.18;69.72;;;;;;;;;;5003696;28;25078;-76
2023/12/08 08:16:21;;;;;;;171.73;71.35;;;;;;;;;;5005323;28;25058;-76
2023/12/08 08:18:47;;;;;;;170.18;73.43;;;;;;;;;;5005815;28;25093;-75
2023/12/08 08:21:13;;;;;;;147.10;68.45;;;;;;;;;;5005774;28;25065;-75
2023/12/08 08:23:41;;;;;;;163.18;74.20;;;;;;;;;;5003157;28;25061;-75
2023/12/08 08:26:07;;;;;;;168.63;72.80;;;;;;;;;;5004199;28;25064;-74
2023/12/08 08:28:33;;;;;;;156.02;66.93;;;;;;;;;;5007741;28;25074;-74
2023/12/08 08:30:58;;;;;;;193.40;74.50;;;;;;;;;;5006136;28;25020;-74
2023/12/08 08:33:25;;;;;;;165.20;71.45;;;;;;;;;;5004213;28;25081;-75
2023/12/08 08:35:51;;;;;;;153.57;68.95;;;;;;;;;;5000438;28;25183;-74
2023/12/08 08:38:17;;;;;;;121.28;59.15;;;;;;;;;;5003606;28;25140;-73
2023/12/08 08:40:43;;;;;;;203.32;76.50;;;;;;;;;;5001355;28;25068;-74
2023/12/08 08:43:09;;;;;;;218.30;76.10;;;;;;;;;;5020888;28;25082;-73
2023/12/08 08:45:35;;;;;;;151.90;67.38;;;;;;;;;;5004404;28;25095;-74
2023/12/08 08:48:01;;;;;;;184.35;72.95;;;;;;;;;;5006238;28;25083;-74
2023/12/08 08:50:27;;;;;;;182.10;71.57;;;;;;;;;;5005179;28;25131;-74
2023/12/08 08:52:53;;;;;;;160.55;64.50;;;;;;;;;;5005302;28;25070;-74
2023/12/08 08:55:19;;;;;;;145.50;63.42;;;;;;;;;;5003619;28;25166;-74
2023/12/08 08:57:47;;;;;;;197.98;77.15;;;;;;;;;;5004406;28;25133;-73
2023/12/08 09:00:14;;;;;;;175.80;70.25;;;;;;;;;;5004356;28;25067;-74
2023/12/08 09:02:41;;;;;;;185.27;70.32;;;;;;;;;;5005660;28;25085;-75
2023/12/08 09:05:07;;;;;;;103.95;59.50;;;;;;;;;;5010745;28;25060;-73
2023/12/08 09:07:33;;;;;;;207.45;76.60;;;;;;;;;;5006874;28;25051;-75
2023/12/08 09:09:59;;;;;;;171.23;69.40;;;;;;;;;;5002513;28;25116;-75
2023/12/08 09:12:25;;;;;;;226.60;76.72;;;;;;;;;;5007190;28;25063;-73
2023/12/08 09:14:51;;;;;;;201.80;77.53;;;;;;;;;;5004502;28;25160;-75
2023/12/08 09:17:17;;;;;;;250.35;82.85;;;;;;;;;;5004292;28;25086;-74
2023/12/08 09:19:43;;;;;;;283.95;90.88;;;;;;;;;;5004037;28;25056;-74
2023/12/08 09:22:10;;;;;;;151.18;67.45;;;;;;;;;;5003404;28;25069;-76
2023/12/08 09:24:35;;;;;;;180.15;70.93;;;;;;;;;;5007663;28;25109;-74
2023/12/08 09:27:03;;;;;;;278.08;83.32;;;;;;;;;;5009589;28;25152;-74
2023/12/08 09:29:28;;;;;;;246.30;83.80;;;;;;;;;;5005574;28;25074;-74
2023/12/08 09:31:54;;;;;;;167.73;69.13;;;;;;;;;;5011440;28;25085;-74
2023/12/08 09:34:20;;;;;;;211.50;76.47;;;;;;;;;;5010292;28;25110;-74
2023/12/08 09:36:46;;;;;;;250.88;81.15;;;;;;;;;;5006582;28;25073;-75
2023/12/08 09:39:13;;;;;;;314.08;92.30;;;;;;;;;;5008427;28;25085;-75
2023/12/08 09:41:40;;;;;;;209.68;77.25;;;;;;;;;;5006618;28;25145;-76
2023/12/08 09:44:05;;;;;;;145.13;66.13;;;;;;;;;;5004382;28;25059;-74
2023/12/08 09:46:34;;;;;;;171.18;70.07;;;;;;;;;;5004656;28;25063;-74
2023/12/08 09:49:01;;;;;;;300.35;90.60;;;;;;;;;;5002389;28;25073;-74
2023/12/08 09:51:28;;;;;;;181.50;70.78;;;;;;;;;;5007507;28;25079;-74
2023/12/08 09:53:55;;;;;;;162.40;66.65;;;;;;;;;;5007472;28;25062;-75
2023/12/08 09:56:23;;;;;;;280.02;87.38;;;;;;;;;;5012219;28;25060;-74
2023/12/08 09:58:49;;;;;;;169.70;67.10;;;;;;;;;;5010517;28;25067;-74
2023/12/08 10:01:17;;;;;;;252.10;81.95;;;;;;;;;;5004381;28;25150;-75
2023/12/08 10:03:43;;;;;;;270.88;83.13;;;;;;;;;;5005601;28;25067;-74
2023/12/08 10:06:10;;;;;;;303.40;89.57;;;;;;;;;;5008044;28;25075;-74
2023/12/08 10:08:36;;;;;;;267.10;81.30;;;;;;;;;;5007694;28;25132;-75
2023/12/08 10:11:03;;;;;;;288.17;85.10;;;;;;;;;;5002419;28;25108;-74
2023/12/08 10:13:29;;;;;;;170.68;63.75;;;;;;;;;;5013353;28;25070;-74
2023/12/08 10:15:59;;;;;;;261.85;75.80;;;;;;;;;;5010529;28;25083;-74
2023/12/08 10:18:25;;;;;;;179.48;65.65;;;;;;;;;;5008473;28;25080;-75
2023/12/08 10:20:51;;;;;;;235.68;72.38;;;;;;;;;;5008911;28;25328;-74
2023/12/08 10:23:20;;;;;;;294.50;84.20;;;;;;;;;;5009007;28;25085;-74
2023/12/08 10:25:47;;;;;;;276.95;82.72;;;;;;;;;;5008585;28;25064;-74
2023/12/08 10:28:13;;;;;;;213.70;74.22;;;;;;;;;;5007935;28;25062;-74
2023/12/08 10:30:44;;;;;;;252.60;77.88;;;;;;;;;;5002705;28;25073;-74
2023/12/08 10:33:18;;;;;;;274.23;84.75;;;;;;;;;;5004608;28;25112;-74
2023/12/08 10:35:44;;;;;;;214.32;72.68;;;;;;;;;;5007590;28;25082;-75
2023/12/08 10:38:10;;;;;;;109.47;56.17;;;;;;;;;;5004208;28;25146;-74
2023/12/08 10:40:36;;;;;;;167.80;67.45;;;;;;;;;;5009982;28;25076;-74
2023/12/08 10:43:02;;;;;;;185.27;70.82;;;;;;;;;;5018668;28;25128;-74
2023/12/08 10:45:27;;;;;;;210.25;71.55;;;;;;;;;;5015033;28;25093;-75
2023/12/08 10:47:55;;;;;;;216.45;75.38;;;;;;;;;;5009405;28;25085;-75
2023/12/08 10:50:21;;;;;;;211.55;72.05;;;;;;;;;;5004490;28;25084;-74
2023/12/08 10:52:47;;;;;;;228.13;75.47;;;;;;;;;;5003420;28;25063;-75
2023/12/08 10:55:13;;;;;;;195.40;73.68;;;;;;;;;;5007973;28;25081;-74
2023/12/08 10:57:39;;;;;;;251.75;80.63;;;;;;;;;;5011393;28;25092;-74
2023/12/08 11:00:12;;;;;;;164.45;65.10;;;;;;;;;;5009837;28;25062;-74
2023/12/08 11:02:41;;;;;;;263.95;83.35;;;;;;;;;;5008492;28;25065;-74
2023/12/08 11:05:10;;;;;;;236.25;78.07;;;;;;;;;;5004282;28;25105;-76
2023/12/08 11:07:39;;;;;;;228.05;77.05;;;;;;;;;;5003622;28;25102;-74
2023/12/08 11:10:07;;;;;;;187.25;69.93;;;;;;;;;;5005454;28;25130;-73
2023/12/08 11:12:37;;;;;;;182.25;67.50;;;;;;;;;;5003852;28;25130;-74
2023/12/08 11:15:04;;;;;;;307.48;85.43;;;;;;;;;;5007791;28;25058;-75
2023/12/08 11:17:49;;;;;;;282.60;83.53;;;;;;;;;;5007249;28;25059;-74
2023/12/08 11:20:16;;;;;;;271.70;80.88;;;;;;;;;;5002687;28;25063;-73
2023/12/08 11:22:45;;;;;;;272.63;82.03;;;;;;;;;;5005414;28;25121;-75
2023/12/08 11:25:15;;;;;;;233.40;76.03;;;;;;;;;;5005250;28;25060;-73
2023/12/08 11:27:49;;;;;;;274.60;81.38;;;;;;;;;;5003656;28;25079;-73
2023/12/08 11:30:33;;;;;;;197.60;67.43;;;;;;;;;;5003939;28;25060;-74
2023/12/08 11:33:06;;;;;;;241.30;76.47;;;;;;;;;;5005071;28;25062;-74
2023/12/08 11:35:32;;;;;;;280.70;78.72;;;;;;;;;;5004508;28;25154;-74
2023/12/08 11:37:59;;;;;;;259.17;77.88;;;;;;;;;;5003254;28;25186;-73
2023/12/08 11:40:25;;;;;;;235.32;76.90;;;;;;;;;;5006844;28;25119;-73
2023/12/08 11:42:53;;;;;;;249.13;76.65;;;;;;;;;;5021209;28;25072;-74
2023/12/08 11:45:19;;;;;;;248.27;76.57;;;;;;;;;;5005554;28;25050;-75
2023/12/08 11:47:45;;;;;;;227.00;75.05;;;;;;;;;;5003019;28;25080;-74
2023/12/08 11:50:11;;;;;;;210.98;69.03;;;;;;;;;;5005813;28;25154;-73
2023/12/08 11:52:38;;;;;;;187.57;66.88;;;;;;;;;;5005535;28;25075;-73
2023/12/08 11:55:11;;;;;;;244.98;75.05;;;;;;;;;;5007172;28;25065;-73
2023/12/08 11:57:42;;;;;;;211.00;70.57;;;;;;;;;;5004175;28;25078;-74
2023/12/08 12:00:10;;;;;;;221.98;70.85;;;;;;;;;;5005176;28;25080;-73
2023/12/08 12:02:37;;;;;;;219.85;72.50;;;;;;;;;;5007188;28;25084;-74
2023/12/08 12:05:03;;;;;;;251.27;75.63;;;;;;;;;;5004923;28;25078;-72
2023/12/08 12:07:29;;;;;;;177.93;64.53;;;;;;;;;;5003526;28;25133;-74
2023/12/08 12:09:56;;;;;;;178.73;67.10;;;;;;;;;;5002885;28;25121;-74
2023/12/08 12:12:27;;;;;;;189.38;66.45;;;;;;;;;;5005318;28;25127;-73
2023/12/08 12:14:57;;;;;;;158.48;61.42;;;;;;;;;;5004798;28;25060;-73
2023/12/08 12:17:24;;;;;;;185.43;65.25;;;;;;;;;;5006089;28;25058;-74
2023/12/08 12:19:53;;;;;;;190.77;64.70;;;;;;;;;;5003198;28;25076;-74
2023/12/08 12:22:19;;;;;;;189.20;64.78;;;;;;;;;;5005963;28;25139;-74
2023/12/08 12:24:46;;;;;;;180.63;64.68;;;;;;;;;;5000894;28;25069;-73
2023/12/08 12:27:12;;;;;;;175.23;65.15;;;;;;;;;;5006546;28;25103;-73
2023/12/08 12:29:38;;;;;;;177.52;67.55;;;;;;;;;;5005482;28;25096;-73
2023/12/08 12:32:07;;;;;;;175.18;63.70;;;;;;;;;;5005081;28;25113;-75
2023/12/08 12:34:33;;;;;;;177.65;66.13;;;;;;;;;;5004972;28;25103;-73
2023/12/08 12:36:59;;;;;;;151.93;57.65;;;;;;;;;;5005327;28;25089;-75
2023/12/08 12:39:25;;;;;;;173.52;63.53;;;;;;;;;;5005291;28;25057;-73
2023/12/08 12:41:56;;;;;;;145.40;60.92;;;;;;;;;;5003615;28;25145;-75
2023/12/08 12:44:22;;;;;;;167.82;60.45;;;;;;;;;;5005260;28;25083;-72
2023/12/08 12:46:48;;;;;;;146.65;59.22;;;;;;;;;;5004328;28;25055;-73
2023/12/08 12:49:15;;;;;;;169.98;63.70;;;;;;;;;;5006083;28;25093;-73
2023/12/08 12:51:42;;;;;;;165.80;62.08;;;;;;;;;;5004310;28;25071;-73
2023/12/08 12:54:09;;;;;;;178.25;62.20;;;;;;;;;;5005872;28;25078;-74
2023/12/08 12:56:36;;;;;;;166.70;60.25;;;;;;;;;;5004674;28;25112;-74
2023/12/08 12:59:09;;;;;;;156.80;62.95;;;;;;;;;;5005129;28;25076;-74
2023/12/08 13:01:36;;;;;;;181.68;66.13;;;;;;;;;;5005258;28;25061;-75
2023/12/08 13:04:03;;;;;;;163.70;60.45;;;;;;;;;;5004211;28;25078;-74
2023/12/08 13:06:30;;;;;;;122.05;55.30;;;;;;;;;;5005379;28;25129;-74
2023/12/08 13:08:57;;;;;;;167.95;62.63;;;;;;;;;;5004042;28;25073;-73
2023/12/08 13:11:24;;;;;;;183.27;67.22;;;;;;;;;;5004145;28;25149;-76
2023/12/08 13:13:50;;;;;;;170.13;61.45;;;;;;;;;;5004693;28;25055;-73
2023/12/08 13:16:16;;;;;;;142.23;62.45;;;;;;;;;;5004279;28;25044;-74
2023/12/08 13:18:48;;;;;;;154.18;60.75;;;;;;;;;;5006408;28;25078;-74
2023/12/08 13:21:17;;;;;;;157.43;60.78;;;;;;;;;;5004545;28;25095;-75
2023/12/08 13:23:44;;;;;;;157.93;62.50;;;;;;;;;;5007746;28;25090;-72
2023/12/08 13:26:11;;;;;;;174.20;62.58;;;;;;;;;;5005969;28;25072;-74
2023/12/08 13:28:37;;;;;;;91.63;51.20;;;;;;;;;;5019698;28;25090;-73
2023/12/08 13:31:04;;;;;;;143.02;59.45;;;;;;;;;;5003778;28;25073;-74
2023/12/08 13:33:30;;;;;;;153.63;59.63;;;;;;;;;;5004410;28;25103;-74
2023/12/08 13:35:56;;;;;;;136.02;56.22;;;;;;;;;;5004752;28;25156;-73
2023/12/08 13:38:22;;;;;;;131.88;57.67;;;;;;;;;;5003949;28;25136;-75
2023/12/08 13:40:48;;;;;;;123.28;55.85;;;;;;;;;;5003962;28;24946;-73
2023/12/08 13:43:14;;;;;;;117.57;54.97;;;;;;;;;;5001149;28;25070;-75
2023/12/08 13:45:40;;;;;;;121.00;53.58;;;;;;;;;;5002950;28;25083;-75
2023/12/08 13:48:06;;;;;;;130.90;57.05;;;;;;;;;;5002210;28;25065;-74
2023/12/08 13:50:32;;;;;;;131.07;58.28;;;;;;;;;;5004330;28;25061;-75
2023/12/08 13:52:58;;;;;;;134.07;55.17;;;;;;;;;;5002591;28;25138;-74
2023/12/08 13:55:25;;;;;;;108.70;51.30;;;;;;;;;;5003507;28;25066;-73
2023/12/08 13:57:51;;;;;;;121.53;54.83;;;;;;;;;;5007998;28;25083;-74
2023/12/08 14:00:17;;;;;;;125.47;54.22;;;;;;;;;;5006165;28;25071;-73
2023/12/08 14:02:43;;;;;;;85.72;49.58;;;;;;;;;;5004933;28;25161;-74
2023/12/08 14:05:10;;;;;;;118.97;54.47;;;;;;;;;;5004157;28;25082;-74
2023/12/08 14:07:36;;;;;;;115.30;55.47;;;;;;;;;;4999944;28;25058;-72